Time;durP1;ratioP1;P1;durP2;ratioP2;P2;SDS_P1;SDS_P2;PMS_P1;PMS_P2;Temp;Humidity;BMP_temperature;BMP_pressure;BME280_temperature;BME280_humidity;BME280_pressure;Samples;Min_cycle;Max_cycle;Signal;HPM_P1;HPM_P2
2022/11/20 00:01:07;;;;;;;19.58;10.48;;;;;;;-0.09;79.22;100778.28;5037117;28;20044;-67
2022/11/20 00:03:33;;;;;;;21.05;10.73;;;;;;;-0.10;79.07;100787.72;5026657;28;20056;-65
2022/11/20 00:06:01;;;;;;;15.63;8.05;;;;;;;0.15;78.50;100782.38;5047278;28;20041;-65
2022/11/20 00:08:27;;;;;;;19.35;9.57;;;;;;;0.23;78.43;100775.41;5049167;28;20049;-65
2022/11/20 00:10:53;;;;;;;19.05;10.75;;;;;;;0.15;78.24;100765.16;5043035;28;20044;-65
2022/11/20 00:13:20;;;;;;;18.52;9.85;;;;;;;-0.18;79.71;100776.59;5049396;28;20044;-65
2022/11/20 00:15:46;;;;;;;25.42;11.25;;;;;;;-0.26;80.32;100768.06;5054678;28;20044;-65
2022/11/20 00:18:14;;;;;;;20.25;11.23;;;;;;;-0.18;80.17;100774.03;5037372;28;20040;-66
2022/11/20 00:20:41;;;;;;;23.13;9.95;;;;;;;-0.03;79.74;100773.91;5045695;28;20048;-65
2022/11/20 00:23:07;;;;;;;19.25;10.27;;;;;;;0.23;78.41;100765.94;5046920;28;20048;-65
2022/11/20 00:25:34;;;;;;;18.30;10.02;;;;;;;0.03;79.21;100762.72;5036357;28;20075;-66
2022/11/20 00:28:01;;;;;;;17.20;9.32;;;;;;;0.28;78.44;100763.34;5045987;28;20047;-66
2022/11/20 00:30:27;;;;;;;21.75;11.05;;;;;;;-0.26;79.88;100769.81;5055782;28;20063;-66
2022/11/20 00:32:54;;;;;;;21.30;10.85;;;;;;;-0.39;81.38;100765.59;5050412;28;20051;-65
2022/11/20 00:35:21;;;;;;;20.45;11.45;;;;;;;-0.53;82.21;100765.69;5066306;28;20044;-65
2022/11/20 00:37:48;;;;;;;21.95;11.65;;;;;;;-0.64;82.75;100767.47;5074710;28;20055;-65
2022/11/20 00:40:14;;;;;;;21.05;9.90;;;;;;;-0.23;81.95;100760.34;5062153;28;20051;-66
2022/11/20 00:42:41;;;;;;;17.70;10.25;;;;;;;-0.14;80.87;100755.09;5049069;28;20041;-66
2022/11/20 00:45:08;;;;;;;21.05;10.95;;;;;;;0.06;80.37;100764.41;5059171;28;20678;-66
2022/11/20 00:47:34;;;;;;;16.20;9.63;;;;;;;0.45;78.56;100758.84;5072643;28;20048;-65
2022/11/20 00:50:00;;;;;;;20.17;9.82;;;;;;;0.67;78.07;100759.47;5066576;28;20380;-66
2022/11/20 00:52:28;;;;;;;21.40;9.25;;;;;;;0.93;76.31;100755.72;5053327;28;20703;-65
2022/11/20 00:54:55;;;;;;;18.20;10.30;;;;;;;0.76;76.70;100756.81;5036417;28;20044;-65
2022/11/20 00:57:21;;;;;;;17.83;9.85;;;;;;;0.77;77.09;100743.03;5051110;28;20060;-65
2022/11/20 00:59:48;;;;;;;22.65;10.90;;;;;;;1.10;75.74;100752.09;5040858;28;20053;-65
2022/11/20 01:02:16;;;;;;;20.67;10.57;;;;;;;1.13;75.03;100741.72;5032305;28;20048;-65
2022/11/20 01:04:42;;;;;;;19.08;10.05;;;;;;;1.27;75.08;100750.13;5033203;28;20051;-65
2022/11/20 01:07:09;;;;;;;17.60;9.52;;;;;;;1.48;74.18;100749.81;5027633;28;20567;-66
2022/11/20 01:09:36;;;;;;;22.42;10.35;;;;;;;1.56;73.49;100747.97;5017559;28;20056;-65
2022/11/20 01:12:03;;;;;;;18.23;10.50;;;;;;;1.54;73.13;100743.72;5027328;28;20044;-65
2022/11/20 01:14:29;;;;;;;18.45;9.90;;;;;;;1.62;72.61;100739.31;5026668;28;20052;-65
2022/11/20 01:16:56;;;;;;;16.80;9.00;;;;;;;1.44;72.87;100750.75;5016852;28;20044;-65
2022/11/20 01:19:24;;;;;;;21.02;9.85;;;;;;;1.47;73.22;100748.13;5027987;28;20048;-65
2022/11/20 01:21:52;;;;;;;18.48;10.02;;;;;;;1.16;74.55;100742.53;5031594;28;20091;-65
2022/11/20 01:24:20;;;;;;;22.38;10.45;;;;;;;1.31;74.46;100739.75;5021358;28;20045;-65
2022/11/20 01:26:50;;;;;;;20.35;9.93;;;;;;;1.38;74.13;100733.59;5029031;28;20464;-65
2022/11/20 01:29:22;;;;;;;18.30;9.90;;;;;;;1.25;74.12;100731.22;5027943;28;20037;-65
2022/11/20 01:31:49;;;;;;;20.43;10.57;;;;;;;1.50;73.43;100742.91;5020917;28;20051;-65
2022/11/20 01:34:17;;;;;;;19.30;9.98;;;;;;;1.50;73.28;100731.72;5044511;28;20049;-65
2022/11/20 01:36:44;;;;;;;16.88;9.43;;;;;;;1.63;72.99;100723.75;5033791;28;20037;-65
2022/11/20 01:39:14;;;;;;;22.98;10.15;;;;;;;1.18;74.30;100722.72;5032013;28;20519;-65
2022/11/20 01:44:48;;;;;;;17.88;9.82;;;;;;;1.24;74.82;100727.78;5040164;28;20654;-65
2022/11/20 01:47:18;;;;;;;15.73;9.02;;;;;;;1.32;74.07;100727.69;5052005;28;20052;-65
2022/11/20 01:49:51;;;;;;;19.00;10.00;;;;;;;1.48;73.94;100722.25;5039835;28;20092;-66
2022/11/20 01:52:23;;;;;;;19.27;10.55;;;;;;;1.41;73.54;100722.38;5018346;28;20042;-65
2022/11/20 01:54:55;;;;;;;26.83;10.35;;;;;;;1.20;74.83;100722.69;5004715;28;20049;-66
2022/11/20 01:57:23;;;;;;;25.20;10.85;;;;;;;1.06;75.79;100712.53;5049009;28;20044;-65
2022/11/20 01:59:57;;;;;;;21.40;9.98;;;;;;;1.12;75.57;100717.63;5044121;28;20077;-65
2022/11/20 02:02:24;;;;;;;25.98;10.00;;;;;;;1.02;75.65;100717.75;5057216;28;20040;-65
2022/11/20 02:04:55;;;;;;;18.35;10.20;;;;;;;1.18;75.28;100714.13;5050263;28;20068;-66
2022/11/20 02:07:23;;;;;;;23.50;10.73;;;;;;;1.16;75.42;100721.00;5039141;28;20052;-65
2022/11/20 02:09:50;;;;;;;18.85;10.45;;;;;;;1.17;75.57;100717.56;5049684;28;20519;-65
2022/11/20 02:14:58;;;;;;;19.55;9.68;;;;;;;1.42;74.91;100712.03;5049149;28;20057;-64
2022/11/20 02:17:26;;;;;;;23.65;10.55;;;;;;;1.60;73.87;100708.28;5050184;28;20458;-66
2022/11/20 02:19:52;;;;;;;19.75;10.55;;;;;;;1.60;74.22;100700.53;5040259;28;20637;-65
2022/11/20 02:22:26;;;;;;;21.10;10.07;;;;;;;1.80;73.03;100695.06;5050831;28;20083;-66
2022/11/20 02:24:54;;;;;;;17.92;9.63;;;;;;;1.20;75.26;100697.72;5050588;28;20428;-65
2022/11/20 02:27:22;;;;;;;18.48;10.10;;;;;;;0.98;76.95;100696.31;5039973;28;20048;-65
2022/11/20 02:29:52;;;;;;;15.52;9.50;;;;;;;0.94;77.09;100692.91;5038207;28;20127;-65
2022/11/20 02:32:20;;;;;;;21.00;10.38;;;;;;;0.91;77.05;100698.13;5045910;28;20036;-65
2022/11/20 02:34:46;;;;;;;21.70;10.95;;;;;;;1.31;75.90;100693.25;5039668;28;20043;-65
2022/11/20 02:37:13;;;;;;;19.77;11.13;;;;;;;1.42;74.77;100690.50;5048836;28;20051;-65
2022/11/20 02:39:41;;;;;;;21.55;10.18;;;;;;;1.72;73.57;100682.25;5059241;28;20404;-65
2022/11/20 02:42:08;;;;;;;21.58;11.63;;;;;;;1.66;73.88;100686.69;5048846;28;20058;-66
2022/11/20 02:44:35;;;;;;;21.67;10.55;;;;;;;1.85;73.48;100691.50;5033118;28;20048;-66
2022/11/20 02:47:01;;;;;;;20.20;9.27;;;;;;;1.83;73.36;100688.09;5049754;28;20492;-65
2022/11/20 02:49:28;;;;;;;19.38;9.70;;;;;;;2.06;72.76;100684.28;5039790;28;20048;-65
2022/11/20 02:51:54;;;;;;;26.52;11.02;;;;;;;1.78;73.89;100678.72;5049458;28;20037;-65
2022/11/20 02:54:21;;;;;;;20.25;9.98;;;;;;;1.38;75.52;100687.09;5050585;28;20044;-66
2022/11/20 02:56:47;;;;;;;16.30;9.25;;;;;;;1.53;75.30;100680.84;5040832;28;20082;-65
2022/11/20 02:59:15;;;;;;;19.80;9.93;;;;;;;1.62;74.83;100682.44;5062480;28;20056;-65
2022/11/20 03:01:42;;;;;;;20.70;10.50;;;;;;;1.44;75.67;100675.84;5049327;28;20051;-65
2022/11/20 03:04:08;;;;;;;21.52;9.88;;;;;;;1.64;75.40;100673.78;5039541;28;20055;-65
2022/11/20 03:06:35;;;;;;;21.52;9.98;;;;;;;1.77;74.73;100674.44;5047544;28;20048;-65
2022/11/20 03:09:02;;;;;;;21.45;9.95;;;;;;;1.89;74.21;100671.63;5079649;28;20114;-65
2022/11/20 03:11:29;;;;;;;19.85;9.23;;;;;;;1.70;74.61;100668.50;5040275;28;20040;-65
2022/11/20 03:13:56;;;;;;;20.55;10.07;;;;;;;1.26;76.17;100676.09;5048789;28;20047;-66
2022/11/20 03:16:24;;;;;;;22.67;10.57;;;;;;;1.20;77.46;100669.31;5048893;28;20048;-65
2022/11/20 03:18:53;;;;;;;24.60;10.15;;;;;;;1.01;78.16;100662.69;5035101;28;20044;-65
2022/11/20 03:21:19;;;;;;;21.63;10.55;;;;;;;0.85;78.43;100662.03;5047840;28;20072;-65
2022/11/20 03:23:46;;;;;;;20.83;10.25;;;;;;;0.85;78.35;100664.63;5068132;28;20044;-65
2022/11/20 03:26:15;;;;;;;17.45;10.02;;;;;;;0.40;80.22;100670.38;5038495;28;20059;-65
2022/11/20 03:28:42;;;;;;;19.48;10.43;;;;;;;0.39;80.40;100663.50;5047724;28;20044;-65
2022/11/20 03:31:11;;;;;;;17.00;8.73;;;;;;;0.12;80.65;100662.06;5048703;28;20061;-65
2022/11/20 03:33:39;;;;;;;18.33;10.50;;;;;;;0.11;80.76;100662.09;5037728;28;20526;-65
2022/11/20 03:36:08;;;;;;;18.90;9.75;;;;;;;-0.23;81.55;100661.56;5047862;28;20044;-65
2022/11/20 03:38:35;;;;;;;18.00;10.70;;;;;;;-1.10;84.36;100664.78;5048891;28;20484;-65
2022/11/20 03:41:03;;;;;;;14.70;8.13;;;;;;;-1.33;84.86;100671.75;5049773;28;20408;-65
2022/11/20 03:43:30;;;;;;;17.33;10.27;;;;;;;-1.58;84.97;100659.84;5047108;28;20074;-65
2022/11/20 03:45:56;;;;;;;14.80;8.27;;;;;;;-1.56;85.63;100671.00;5048773;28;20040;-65
2022/11/20 03:48:23;;;;;;;14.73;7.78;;;;;;;-1.69;85.90;100661.63;5041970;28;20416;-65
2022/11/20 03:50:50;;;;;;;13.02;7.18;;;;;;;-1.83;85.93;100663.38;5047805;28;20048;-65
2022/11/20 03:53:17;;;;;;;20.20;9.18;;;;;;;-1.60;84.98;100654.75;5048500;28;20045;-65
2022/11/20 03:55:43;;;;;;;20.42;9.00;;;;;;;-1.66;84.63;100664.16;5038380;28;20538;-65
2022/11/20 03:58:11;;;;;;;20.60;10.82;;;;;;;-1.69;83.73;100657.34;5047367;28;20067;-65
2022/11/20 04:00:37;;;;;;;14.93;7.80;;;;;;;-1.77;84.18;100656.50;5047558;28;20051;-65
2022/11/20 04:03:04;;;;;;;16.08;9.13;;;;;;;-1.68;83.39;100648.75;5037894;28;20040;-65
2022/11/20 04:05:31;;;;;;;16.70;6.38;;;;;;;-1.54;82.61;100662.41;5047058;28;20408;-65
2022/11/20 04:07:59;;;;;;;12.48;6.85;;;;;;;-1.73;83.50;100652.19;5047467;28;20519;-65
2022/11/20 04:10:25;;;;;;;12.93;6.32;;;;;;;-1.47;82.09;100658.97;5037579;28;20056;-65
2022/11/20 04:12:51;;;;;;;15.18;7.78;;;;;;;-1.28;81.41;100652.00;5047184;28;20047;-65
2022/11/20 04:15:18;;;;;;;18.88;8.40;;;;;;;-1.62;82.66;100653.00;5047767;28;20051;-65
2022/11/20 04:17:44;;;;;;;17.52;8.68;;;;;;;-1.75;83.38;100647.09;5037494;28;20040;-65
2022/11/20 04:20:11;;;;;;;17.17;9.48;;;;;;;-1.71;83.45;100648.78;5046599;28;20051;-65
2022/11/20 04:22:38;;;;;;;16.52;8.30;;;;;;;-1.29;81.99;100644.31;5047987;28;20063;-65
2022/11/20 04:25:06;;;;;;;22.10;10.80;;;;;;;-1.62;83.26;100646.16;5037030;28;20052;-65
2022/11/20 04:27:33;;;;;;;19.30;8.98;;;;;;;-1.26;81.70;100647.72;5045963;28;20048;-65
2022/11/20 04:29:59;;;;;;;17.48;8.43;;;;;;;-0.98;80.77;100646.69;5046985;28;20106;-66
2022/11/20 04:32:26;;;;;;;17.60;9.18;;;;;;;-1.33;81.92;100643.44;5036851;28;20049;-65
2022/11/20 04:34:52;;;;;;;17.58;9.40;;;;;;;-1.24;81.71;100640.84;5047931;28;20051;-65
2022/11/20 04:37:18;;;;;;;15.88;9.82;;;;;;;-1.22;81.53;100640.84;5048084;28;20072;-65
2022/11/20 04:39:45;;;;;;;13.82;7.72;;;;;;;-1.17;81.87;100639.94;5038483;28;20458;-65
2022/11/20 04:42:31;;;;;;;15.43;7.90;;;;;;;-1.17;80.91;100636.50;5047132;28;20044;-65
2022/11/20 04:44:59;;;;;;;14.75;7.47;;;;;;;-1.31;82.31;100634.03;5037394;28;20041;-65
2022/11/20 04:47:25;;;;;;;19.50;8.15;;;;;;;-1.25;81.95;100646.84;5046222;28;20040;-65
2022/11/20 04:49:52;;;;;;;15.88;8.45;;;;;;;-1.18;81.33;100635.66;5047748;28;20052;-65
2022/11/20 04:52:18;;;;;;;14.85;7.28;;;;;;;-0.81;80.14;100635.44;5038267;28;20068;-65
2022/11/20 04:54:45;;;;;;;20.20;9.13;;;;;;;-0.94;80.02;100629.50;5043076;28;20048;-65
2022/11/20 04:57:15;;;;;;;20.13;8.63;;;;;;;-1.24;81.15;100645.13;5042288;28;20052;-65
2022/11/20 04:59:42;;;;;;;12.90;7.43;;;;;;;-1.06;80.52;100643.31;5037567;28;20514;-65
2022/11/20 05:02:08;;;;;;;13.45;7.47;;;;;;;-1.10;81.22;100633.91;5046428;28;20748;-65
2022/11/20 05:04:35;;;;;;;15.70;9.10;;;;;;;-1.62;83.15;100633.31;5047389;28;20044;-65
2022/11/20 05:07:01;;;;;;;18.23;9.02;;;;;;;-1.56;83.53;100637.59;5037367;28;20049;-65
2022/11/20 05:09:28;;;;;;;17.98;8.35;;;;;;;-1.42;83.34;100630.66;5046528;28;20047;-65
2022/11/20 05:11:54;;;;;;;14.30;8.45;;;;;;;-1.40;82.57;100628.91;5047561;28;20056;-65
2022/11/20 05:14:22;;;;;;;14.45;8.02;;;;;;;-0.86;81.40;100627.75;5037024;28;20462;-65
2022/11/20 05:16:48;;;;;;;15.18;8.88;;;;;;;-0.56;79.03;100621.50;5046232;28;20060;-65
2022/11/20 05:19:15;;;;;;;16.55;9.43;;;;;;;-0.50;78.44;100619.72;5047639;28;20055;-65
2022/11/20 05:21:41;;;;;;;16.90;9.57;;;;;;;-0.94;80.36;100623.50;5037108;28;20049;-65
2022/11/20 05:24:08;;;;;;;19.35;8.68;;;;;;;-0.93;80.47;100618.38;5046027;28;20055;-65
2022/11/20 05:26:34;;;;;;;13.55;8.32;;;;;;;-1.03;81.10;100627.84;5046429;28;20048;-65
2022/11/20 05:29:01;;;;;;;17.48;7.85;;;;;;;-0.91;80.85;100623.47;5036642;28;20412;-65
2022/11/20 05:31:29;;;;;;;17.45;8.63;;;;;;;-0.72;79.90;100622.50;5047153;28;20492;-65
2022/11/20 05:33:56;;;;;;;19.02;9.05;;;;;;;-0.54;78.87;100617.19;5046854;28;20057;-65
2022/11/20 05:36:23;;;;;;;16.60;9.27;;;;;;;-0.80;79.99;100619.13;5037631;28;20044;-65
2022/11/20 05:38:49;;;;;;;18.15;7.95;;;;;;;-1.08;81.10;100610.75;5054540;28;20071;-65
2022/11/20 05:41:18;;;;;;;15.07;7.60;;;;;;;-1.00;81.81;100609.81;5066324;28;20523;-65
2022/11/20 05:43:46;;;;;;;15.50;8.13;;;;;;;-1.35;82.59;100609.19;5061796;28;20045;-65
2022/11/20 05:46:15;;;;;;;14.88;7.28;;;;;;;-1.76;84.26;100605.94;5063704;28;20060;-66
2022/11/20 05:48:44;;;;;;;13.05;7.00;;;;;;;-1.73;85.37;100608.50;5064756;28;20048;-65
2022/11/20 05:51:12;;;;;;;16.00;7.85;;;;;;;-1.75;85.48;100605.09;5062228;28;20045;-65
2022/11/20 05:53:40;;;;;;;15.20;7.85;;;;;;;-1.54;84.47;100611.00;5056724;28;20045;-65
2022/11/20 05:56:09;;;;;;;17.38;8.35;;;;;;;-1.79;85.31;100604.25;5064996;28;20126;-65
2022/11/20 05:58:36;;;;;;;13.27;7.47;;;;;;;-1.68;85.19;100610.22;5063122;28;20094;-65
2022/11/20 06:01:08;;;;;;;15.43;8.30;;;;;;;-1.72;85.34;100599.94;5062526;28;20508;-66
2022/11/20 06:03:34;;;;;;;13.18;6.72;;;;;;;-1.63;84.71;100599.91;5063400;28;20047;-65
2022/11/20 06:06:03;;;;;;;15.48;8.00;;;;;;;-1.70;85.23;100604.19;5065030;28;20049;-65
2022/11/20 06:08:29;;;;;;;17.27;7.47;;;;;;;-1.49;84.81;100598.97;5067581;28;20079;-65
2022/11/20 06:10:56;;;;;;;13.93;7.20;;;;;;;-1.08;82.32;100596.16;5065726;28;20060;-65
2022/11/20 06:13:23;;;;;;;14.10;7.68;;;;;;;-1.43;82.86;100592.94;5068457;28;20051;-65
2022/11/20 06:15:50;;;;;;;10.75;5.85;;;;;;;-1.26;83.04;100600.56;5067708;28;20044;-65
2022/11/20 06:18:16;;;;;;;12.48;7.72;;;;;;;-1.49;83.38;100598.97;5066765;28;20084;-65
2022/11/20 06:20:43;;;;;;;16.83;6.40;;;;;;;-1.70;84.72;100604.19;5067501;28;20049;-65
2022/11/20 06:23:10;;;;;;;15.40;7.78;;;;;;;-1.60;84.15;100600.75;5066940;28;20045;-65
2022/11/20 06:25:38;;;;;;;14.93;7.70;;;;;;;-1.34;83.27;100599.75;5066158;28;20412;-65
2022/11/20 06:28:05;;;;;;;16.13;8.48;;;;;;;-1.43;83.31;100597.22;5067408;28;20052;-65
2022/11/20 06:30:31;;;;;;;10.85;6.13;;;;;;;-1.38;83.27;100598.06;5066756;28;20127;-65
2022/11/20 06:32:57;;;;;;;10.95;6.50;;;;;;;-1.49;82.64;100603.25;5065790;28;20055;-65
2022/11/20 06:35:24;;;;;;;13.20;6.63;;;;;;;-1.78;84.08;100602.53;5067435;28;20044;-65
2022/11/20 06:37:50;;;;;;;12.20;5.85;;;;;;;-1.41;83.02;100600.66;5066597;28;20048;-65
2022/11/20 06:40:18;;;;;;;17.33;7.85;;;;;;;-1.56;82.85;100599.03;5068425;28;20044;-65
2022/11/20 06:42:45;;;;;;;12.38;7.55;;;;;;;-1.52;81.83;100603.28;5049802;28;20052;-66
2022/11/20 06:45:11;;;;;;;18.17;7.82;;;;;;;-1.99;83.68;100603.44;5048906;28;20083;-65
2022/11/20 06:47:38;;;;;;;19.83;7.80;;;;;;;-1.73;83.24;100601.66;5048514;28;20059;-65
2022/11/20 06:50:05;;;;;;;16.10;7.28;;;;;;;-1.73;82.66;100595.66;5044151;28;20051;-65
2022/11/20 06:52:31;;;;;;;19.80;8.50;;;;;;;-1.92;83.17;100591.47;5047986;28;20059;-66
2022/11/20 06:54:58;;;;;;;16.50;6.63;;;;;;;-1.75;82.95;100590.53;5048934;28;20048;-65
2022/11/20 06:57:25;;;;;;;19.38;7.20;;;;;;;-1.74;82.13;100591.41;5038658;28;20044;-66
2022/11/20 06:59:52;;;;;;;18.42;8.68;;;;;;;-1.79;82.52;100600.81;5046786;28;20480;-65
2022/11/20 07:02:18;;;;;;;11.70;5.18;;;;;;;-1.96;83.03;100599.16;5048525;28;20053;-66
2022/11/20 07:04:45;;;;;;;18.13;8.63;;;;;;;-2.64;85.59;100603.59;5048750;28;20054;-65
2022/11/20 07:07:11;;;;;;;19.27;8.55;;;;;;;-2.81;87.69;100607.88;5052650;28;20048;-65
2022/11/20 07:09:37;;;;;;;17.50;6.68;;;;;;;-2.78;88.19;100610.44;5048654;28;20151;-65
2022/11/20 07:12:04;;;;;;;20.10;7.90;;;;;;;-2.62;87.23;100600.16;5039139;28;20071;-65
2022/11/20 07:14:32;;;;;;;16.00;6.75;;;;;;;-2.67;87.14;100601.88;5047804;28;20041;-65
2022/11/20 07:16:58;;;;;;;14.25;5.97;;;;;;;-2.90;88.55;100605.28;5048787;28;20060;-65
2022/11/20 07:19:25;;;;;;;13.25;5.65;;;;;;;-2.70;88.62;100598.47;5037396;28;20541;-65
2022/11/20 07:21:52;;;;;;;15.13;6.70;;;;;;;-2.56;87.94;100594.16;5048153;28;20052;-65
2022/11/20 07:24:18;;;;;;;17.27;7.78;;;;;;;-2.46;87.05;100586.44;5048233;28;20056;-65
2022/11/20 07:26:47;;;;;;;11.20;5.97;;;;;;;-2.47;87.17;100582.16;5038730;28;20047;-65
2022/11/20 07:29:13;;;;;;;12.27;6.13;;;;;;;-2.33;86.37;100574.47;5047780;28;20103;-65
2022/11/20 07:31:42;;;;;;;16.23;7.45;;;;;;;-2.15;85.35;100569.28;5048954;28;20570;-65
2022/11/20 07:34:08;;;;;;;16.05;6.15;;;;;;;-2.05;85.59;100570.94;5035223;28;20075;-65
2022/11/20 07:36:35;;;;;;;17.02;6.82;;;;;;;-1.91;83.96;100577.72;5040136;28;20071;-65
2022/11/20 07:39:01;;;;;;;12.32;5.90;;;;;;;-1.47;82.46;100591.25;5046410;28;20044;-65
2022/11/20 07:41:28;;;;;;;14.18;6.88;;;;;;;-1.07;80.72;100615.00;5037898;28;20044;-65
2022/11/20 07:43:55;;;;;;;18.80;7.95;;;;;;;-1.07;81.23;100594.41;5047490;28;20991;-66
2022/11/20 07:46:21;;;;;;;18.52;7.30;;;;;;;-0.54;79.77;100605.16;5042045;28;20524;-65
2022/11/20 07:48:49;;;;;;;20.65;8.38;;;;;;;-0.86;79.94;100596.00;5037054;28;20507;-66
2022/11/20 07:51:16;;;;;;;16.80;7.50;;;;;;;-1.12;81.15;100594.47;5032755;28;20063;-65
2022/11/20 07:53:42;;;;;;;10.18;4.57;;;;;;;-1.13;80.61;100584.19;5048233;28;20052;-65
2022/11/20 07:56:09;;;;;;;16.23;6.35;;;;;;;-0.80;79.73;100593.38;5037127;28;20511;-65
2022/11/20 07:58:35;;;;;;;14.00;5.53;;;;;;;-0.33;78.56;100590.41;5046744;28;20434;-65
2022/11/20 08:01:05;;;;;;;19.20;6.68;;;;;;;-1.10;79.80;100586.72;5046715;28;20060;-65
2022/11/20 08:03:32;;;;;;;13.52;5.95;;;;;;;-1.62;83.31;100592.16;5036843;28;20052;-66
2022/11/20 08:06:01;;;;;;;15.20;7.32;;;;;;;-1.76;84.01;100587.97;5047590;28;20055;-66
2022/11/20 08:08:28;;;;;;;15.50;7.07;;;;;;;-1.28;82.98;100576.56;5047915;28;20048;-65
2022/11/20 08:14:11;;;;;;;15.88;6.90;;;;;;;-1.39;82.26;100579.19;5037164;28;20040;-66
2022/11/20 08:16:25;;;;;;;13.00;5.75;;;;;;;-1.05;82.29;100578.13;5046315;28;20055;-65
2022/11/20 08:18:51;;;;;;;14.48;6.07;;;;;;;-1.39;83.73;100579.19;5047315;28;20040;-65
2022/11/20 08:21:19;;;;;;;16.20;7.28;;;;;;;-1.49;84.20;100577.56;5038557;28;20261;-65
2022/11/20 08:23:45;;;;;;;10.75;5.45;;;;;;;-1.56;85.53;100579.31;5046217;28;20040;-65
2022/11/20 08:26:12;;;;;;;16.10;7.30;;;;;;;-1.26;84.37;100580.84;5047819;28;20483;-65
2022/11/20 08:28:38;;;;;;;12.88;6.28;;;;;;;-1.01;83.74;100582.38;5036588;28;20420;-65
2022/11/20 08:31:05;;;;;;;17.23;6.85;;;;;;;-0.96;82.99;100587.47;5045860;28;20062;-64
2022/11/20 08:33:32;;;;;;;18.90;7.65;;;;;;;-1.18;83.15;100583.34;5047337;28;20040;-65
2022/11/20 08:36:00;;;;;;;15.25;6.72;;;;;;;-1.54;84.98;100585.28;5037703;28;20075;-65
2022/11/20 08:38:28;;;;;;;15.90;7.30;;;;;;;-1.59;86.27;100576.72;5046292;28;20064;-65
2022/11/20 08:43:41;;;;;;;14.38;6.78;;;;;;;-1.26;83.96;100582.56;5040270;28;20519;-65
2022/11/20 08:46:07;;;;;;;13.52;6.13;;;;;;;-1.01;83.11;100581.53;5046922;28;20048;-65
2022/11/20 08:48:34;;;;;;;14.10;6.75;;;;;;;-0.87;82.17;100578.84;5037244;28;20045;-65
2022/11/20 08:51:00;;;;;;;18.35;6.82;;;;;;;-1.09;83.64;100579.00;5046230;28;20123;-65
2022/11/20 08:53:28;;;;;;;14.10;6.05;;;;;;;-0.72;83.02;100581.28;5045269;28;20056;-66
2022/11/20 08:55:55;;;;;;;13.00;6.05;;;;;;;-0.32;82.00;100574.91;5035301;28;20488;-66
2022/11/20 08:58:21;;;;;;;14.15;6.18;;;;;;;-0.31;80.97;100576.63;5044921;28;20072;-65
2022/11/20 09:00:48;;;;;;;18.25;7.75;;;;;;;-0.53;81.75;100569.97;5046226;28;20052;-65
2022/11/20 09:03:14;;;;;;;15.02;6.25;;;;;;;-0.60;81.71;100573.47;5036139;28;20048;-65
2022/11/20 09:05:41;;;;;;;15.05;7.03;;;;;;;-0.62;81.51;100575.19;5045422;28;20381;-65
2022/11/20 09:08:07;;;;;;;14.88;6.00;;;;;;;-0.50;81.75;100580.25;5046105;28;20074;-65
2022/11/20 09:10:36;;;;;;;15.50;6.78;;;;;;;-0.52;81.24;100566.53;5036596;28;20055;-65
2022/11/20 09:13:03;;;;;;;13.93;6.50;;;;;;;-0.44;80.87;100564.72;5047265;28;20045;-65
2022/11/20 09:15:29;;;;;;;13.43;7.45;;;;;;;-0.41;81.24;100567.28;5047099;28;20583;-65
2022/11/20 09:17:57;;;;;;;13.52;7.10;;;;;;;-0.30;81.56;100568.03;5036672;28;20045;-65
2022/11/20 09:20:24;;;;;;;16.02;5.72;;;;;;;-0.33;81.22;100572.38;5047483;28;20044;-65
2022/11/20 09:22:51;;;;;;;14.70;7.20;;;;;;;-0.43;80.92;100565.56;5046011;28;20546;-65
2022/11/20 09:25:18;;;;;;;13.73;5.57;;;;;;;-0.42;82.12;100568.16;5045000;28;20058;-65
2022/11/20 09:27:46;;;;;;;16.33;8.23;;;;;;;-0.15;81.15;100570.41;5052604;28;20075;-65
2022/11/20 09:30:13;;;;;;;14.63;6.93;;;;;;;-0.31;82.30;100562.88;5044965;28;20084;-65
2022/11/20 09:32:40;;;;;;;16.67;7.28;;;;;;;0.05;81.31;100564.19;5051508;28;20063;-65
2022/11/20 09:35:07;;;;;;;13.52;5.93;;;;;;;0.64;78.95;100556.53;5045456;28;20048;-65
2022/11/20 09:37:34;;;;;;;13.25;6.35;;;;;;;0.73;78.38;100560.72;5037065;28;20052;-66
2022/11/20 09:40:00;;;;;;;10.65;5.47;;;;;;;1.11;76.81;100557.56;5035912;28;20067;-66
2022/11/20 09:42:38;;;;;;;13.48;5.88;;;;;;;1.43;74.62;100555.28;5048472;28;20546;-66
2022/11/20 09:45:19;;;;;;;14.98;6.80;;;;;;;1.81;72.80;100555.41;5048660;28;20055;-66
2022/11/20 09:48:03;;;;;;;11.45;5.40;;;;;;;2.06;71.58;100548.06;5047341;28;20377;-66
2022/11/20 09:50:33;;;;;;;14.85;6.10;;;;;;;2.07;71.03;100534.22;5046342;28;20444;-65
2022/11/20 09:53:12;;;;;;;13.85;6.38;;;;;;;1.94;71.61;100533.63;5038186;28;20127;-66
2022/11/20 09:55:39;;;;;;;16.02;5.50;;;;;;;1.59;73.87;100536.03;5040975;28;20645;-66
2022/11/20 09:58:08;;;;;;;13.45;6.55;;;;;;;1.27;74.48;100535.75;5058496;28;20056;-65
2022/11/20 10:00:37;;;;;;;12.88;6.22;;;;;;;1.89;73.96;100534.59;5050020;28;20068;-66
2022/11/20 10:03:13;;;;;;;12.30;5.65;;;;;;;2.43;71.88;100537.78;5039407;28;20048;-66
2022/11/20 10:05:45;;;;;;;13.27;6.43;;;;;;;2.70;70.46;100529.41;5047126;28;20040;-66
2022/11/20 10:08:18;;;;;;;10.65;5.50;;;;;;;3.08;68.82;100528.50;5044124;28;20496;-66
2022/11/20 10:10:47;;;;;;;12.73;5.75;;;;;;;3.26;67.85;100542.72;5028990;28;20049;-66
2022/11/20 10:13:24;;;;;;;11.73;5.57;;;;;;;3.38;66.92;100534.66;5029017;28;20060;-66
2022/11/20 10:16:04;;;;;;;11.65;5.40;;;;;;;3.65;65.75;100533.94;5020043;28;20045;-66
2022/11/20 10:18:45;;;;;;;11.90;5.68;;;;;;;3.65;66.51;100525.31;5030238;28;21072;-66
2022/11/20 10:21:19;;;;;;;13.13;5.60;;;;;;;3.65;66.06;100525.31;5029994;28;20046;-66
2022/11/20 10:24:01;;;;;;;14.00;5.60;;;;;;;2.96;68.03;100520.19;5029494;28;21974;-66
2022/11/20 10:26:38;;;;;;;14.25;5.07;;;;;;;3.43;66.99;100530.22;5029601;28;20049;-66
2022/11/20 10:29:12;;;;;;;11.75;5.15;;;;;;;3.33;67.07;100526.13;5035502;28;20417;-66
2022/11/20 10:31:42;;;;;;;10.98;5.57;;;;;;;3.71;66.91;100520.81;5019769;28;20048;-67
2022/11/20 10:34:21;;;;;;;14.73;6.13;;;;;;;3.04;67.65;100519.09;5040169;28;20048;-66
2022/11/20 10:36:53;;;;;;;12.25;5.63;;;;;;;2.83;69.16;100511.84;5012538;28;20052;-66
2022/11/20 10:39:27;;;;;;;14.15;6.70;;;;;;;3.27;68.67;100502.97;5028231;28;20049;-66
2022/11/20 10:41:54;;;;;;;10.75;5.80;;;;;;;3.89;66.52;100507.31;5019385;28;20660;-66
2022/11/20 10:47:09;;;;;;;10.85;5.32;;;;;;;4.01;65.58;100494.91;5026924;28;20393;-65
2022/11/20 10:49:36;;;;;;;10.32;4.68;;;;;;;3.88;64.85;100497.84;5028555;28;20061;-65
2022/11/20 10:52:08;;;;;;;11.73;5.28;;;;;;;4.10;64.50;100495.47;5030364;28;20049;-66
2022/11/20 10:54:44;;;;;;;10.20;4.57;;;;;;;4.02;64.53;100494.00;5032646;28;20504;-66
2022/11/20 10:57:19;;;;;;;11.57;5.05;;;;;;;4.14;64.15;100488.47;5041801;28;20075;-66
2022/11/20 11:00:02;;;;;;;11.10;5.35;;;;;;;4.35;65.07;100482.63;5050010;28;20040;-65
2022/11/20 11:02:38;;;;;;;8.45;4.10;;;;;;;4.34;63.62;100483.53;5028625;28;20570;-66
2022/11/20 11:05:18;;;;;;;10.57;4.63;;;;;;;4.20;63.70;100483.09;5024044;28;20685;-66
2022/11/20 11:07:46;;;;;;;10.95;4.55;;;;;;;4.49;63.03;100480.47;5043094;28;20562;-66
2022/11/20 11:10:17;;;;;;;8.70;5.00;;;;;;;4.21;63.42;100485.63;5059258;27;20052;-66
2022/11/20 11:12:46;;;;;;;11.57;5.03;;;;;;;4.28;63.65;100481.97;5054415;28;20048;-66
2022/11/20 11:15:15;;;;;;;11.80;4.97;;;;;;;4.55;63.08;100479.41;5039544;28;20052;-66
2022/11/20 11:17:48;;;;;;;13.95;5.40;;;;;;;4.63;63.33;100480.03;5037898;28;20040;-66
2022/11/20 11:20:17;;;;;;;10.60;5.10;;;;;;;4.68;63.25;100466.00;5047049;28;20125;-66
2022/11/20 11:22:46;;;;;;;11.32;4.78;;;;;;;4.75;62.84;100467.50;5048129;28;20059;-66
2022/11/20 11:25:29;;;;;;;8.60;4.68;;;;;;;4.69;61.85;100465.09;5041535;28;20056;-66
2022/11/20 11:27:57;;;;;;;;;;;;;;;4.73;61.24;100464.09;5040818;28;20049;-66
2022/11/20 11:30:25;;;;;;;9.75;4.55;;;;;;;4.91;62.15;100462.69;5039285;28;19920;-66
2022/11/20 11:33:03;;;;;;;11.88;4.85;;;;;;;5.12;61.96;100467.16;5047679;28;20052;-66
2022/11/20 11:35:30;;;;;;;10.38;5.03;;;;;;;5.19;61.98;100472.97;5038907;28;20044;-65
2022/11/20 11:38:06;;;;;;;13.63;5.90;;;;;;;5.59;62.10;100477.66;5047829;28;20056;-65